This is the latest recevied weather packets stored in our database for station/object N4QD-13. If no packets are shown the sender has not sent any weather packets the latest 10 day(s).
| Time | Temp. | Humidity | Pressure | Rain* | Wind** | Luminosity | Snow |
|---|---|---|---|---|---|---|---|
| 1777690520 | 14.44° C | 58% | 1013.6 hPa | 0 mm | - | 0 W/m² | - |
| 1777690219 | 14.44° C | 58% | 1013.7 hPa | 0 mm | - | 0 W/m² | - |
| 1777689915 | 15° C | 57% | 1013.7 hPa | 0 mm | - | 0 W/m² | - |
| 1777689614 | 15° C | 55% | 1013.3 hPa | 0 mm | - | 0 W/m² | - |
| 1777689311 | 14.44° C | 57% | 1013 hPa | 0 mm | - | 0 W/m² | - |
| 1777689009 | 14.44° C | 60% | 1013 hPa | 0 mm | - | 0 W/m² | - |
| 1777688705 | 13.89° C | 64% | 1012.9 hPa | 0 mm | - | 0 W/m² | - |
| 1777688403 | 13.33° C | 69% | 1013 hPa | 0 mm | - | 0 W/m² | - |
| 1777688100 | 13.33° C | 68% | 1012.8 hPa | 0 mm | - | 0 W/m² | - |
| 1777687796 | 13.33° C | 68% | 1012.8 hPa | 0 mm | - | 0 W/m² | - |
| 1777687495 | 13.33° C | 69% | 1012.4 hPa | 0 mm | - | 0 W/m² | - |
| 1777687190 | 13.33° C | 69% | 1012.4 hPa | 0 mm | - | 0 W/m² | - |
| 1777686889 | 13.33° C | 68% | 1012.5 hPa | 0 mm | - | 0 W/m² | - |
| 1777686585 | 13.33° C | 69% | 1012.4 hPa | 0 mm | - | 0 W/m² | - |
| 1777686282 | 13.33° C | 70% | 1012.4 hPa | 0 mm | - | 0 W/m² | - |
| 1777685979 | 12.78° C | 71% | 1012.5 hPa | 0 mm | - | 0 W/m² | - |
| 1777685674 | 12.78° C | 70% | 1012.3 hPa | 0 mm | - | 0 W/m² | - |
| 1777685371 | 12.78° C | 69% | 1012.2 hPa | 0 mm | - | 0 W/m² | - |
| 1777685068 | 12.78° C | 69% | 1012.3 hPa | 0 mm | - | 0 W/m² | - |
| 1777684766 | 13.33° C | 68% | 1012.1 hPa | 0 mm | - | 0 W/m² | - |
| 1777684461 | 13.33° C | 67% | 1011.8 hPa | 0 mm | - | 0 W/m² | - |
| 1777684159 | 13.33° C | 67% | 1011.9 hPa | 0 mm | - | 0 W/m² | - |
| 1777683855 | 13.89° C | 65% | 1012.1 hPa | 0 mm | - | 0 W/m² | - |
| 1777683552 | 13.89° C | 62% | 1011.7 hPa | 0 mm | - | 0 W/m² | - |
| 1777683250 | 14.44° C | 59% | 1011.6 hPa | 0 mm | - | 0 W/m² | - |
* Rain latest hour (hover to see other rain measurements)
** Current wind speed in m/s (hover to see current wind gust speed)